createdAt,value
2023-01-09T00:01:54.391Z,100.00
2023-01-09T00:04:56.804Z,100.00
2023-01-09T00:07:59.002Z,100.00
2023-01-09T00:11:01.636Z,100.00
2023-01-09T00:14:04.825Z,100.00
2023-01-09T00:17:07.345Z,100.00
2023-01-09T00:20:11.052Z,100.00
2023-01-09T00:23:13.563Z,100.00
2023-01-09T00:26:18.891Z,100.00
2023-01-09T00:29:21.485Z,100.00
2023-01-09T00:32:23.770Z,100.00
2023-01-09T00:35:28.598Z,100.00
2023-01-09T00:38:31.083Z,100.00
2023-01-09T00:41:46.045Z,100.00
2023-01-09T00:44:52.576Z,100.00
2023-01-09T00:47:59.409Z,100.00
2023-01-09T00:51:01.603Z,100.00
2023-01-09T00:54:04.630Z,100.00
2023-01-09T00:57:08.028Z,100.00
2023-01-09T01:00:11.274Z,100.00
2023-01-09T01:03:13.472Z,100.00
2023-01-09T01:06:34.817Z,100.00
2023-01-09T01:09:37.194Z,100.00
2023-01-09T01:12:40.484Z,100.00
2023-01-09T01:15:46.264Z,100.00
2023-01-09T01:18:48.918Z,100.00
2023-01-09T01:21:51.383Z,100.00
2023-01-09T01:24:53.838Z,100.00
2023-01-09T01:27:56.164Z,100.00
2023-01-09T01:30:58.782Z,100.00
2023-01-09T01:34:01.032Z,100.00
2023-01-09T01:37:03.463Z,100.00
2023-01-09T01:40:08.022Z,100.00
2023-01-09T01:43:12.659Z,100.00
2023-01-09T01:46:18.908Z,100.00
2023-01-09T01:49:21.792Z,100.00
2023-01-09T01:52:25.589Z,100.00
2023-01-09T01:55:28.111Z,100.00
2023-01-09T01:58:30.922Z,100.00
2023-01-09T02:01:34.237Z,100.00
2023-01-09T02:04:40.348Z,100.00
2023-01-09T02:07:42.882Z,100.00
2023-01-09T02:10:45.114Z,100.00
2023-01-09T02:13:48.392Z,100.00
2023-01-09T02:17:21.696Z,100.00
2023-01-09T02:20:40.383Z,100.00
2023-01-09T02:24:08.675Z,100.00
2023-01-09T02:27:43.353Z,100.00
2023-01-09T02:30:56.860Z,100.00
2023-01-09T02:34:04.471Z,100.00
2023-01-09T02:37:06.630Z,100.00
2023-01-09T02:40:18.008Z,100.00
2023-01-09T02:43:20.683Z,100.00
2023-01-09T02:46:23.310Z,100.00
2023-01-09T02:49:25.733Z,100.00
2023-01-09T02:52:45.210Z,100.00
2023-01-09T02:55:52.717Z,100.00
2023-01-09T02:59:07.318Z,100.00
2023-01-09T03:02:39.667Z,100.00
2023-01-09T03:05:42.144Z,100.00
2023-01-09T03:08:49.113Z,100.00
2023-01-09T03:12:00.055Z,100.00
2023-01-09T03:15:04.616Z,100.00
2023-01-09T03:18:10.488Z,100.00
2023-01-09T03:21:13.602Z,100.00
2023-01-09T03:24:16.273Z,100.00
2023-01-09T03:27:18.589Z,100.00
2023-01-09T03:30:21.153Z,100.00
2023-01-09T03:33:23.399Z,100.00
2023-01-09T03:36:26.064Z,100.00
2023-01-09T03:39:28.420Z,100.00
2023-01-09T03:42:39.403Z,100.00
2023-01-09T03:45:42.746Z,100.00
2023-01-09T03:48:45.273Z,100.00
2023-01-09T03:51:47.438Z,100.00
2023-01-09T03:54:49.876Z,100.00
2023-01-09T03:57:52.903Z,100.00
2023-01-09T04:01:03.977Z,99.05
2023-01-09T04:04:06.762Z,99.57
2023-01-09T04:07:08.945Z,100.00
2023-01-09T04:10:12.217Z,99.37
2023-01-09T04:13:14.711Z,99.20
2023-01-09T04:16:17.331Z,100.00
2023-01-09T04:19:19.578Z,100.00
2023-01-09T04:22:22.025Z,98.46
2023-01-09T04:25:24.164Z,99.98
2023-01-09T04:28:26.603Z,98.39
2023-01-09T04:31:28.758Z,99.72
2023-01-09T04:34:31.310Z,100.00
2023-01-09T04:37:33.554Z,100.00
2023-01-09T04:40:36.021Z,100.00
2023-01-09T04:43:38.688Z,100.00
2023-01-09T04:46:41.206Z,100.00
2023-01-09T04:49:43.486Z,100.00
2023-01-09T04:52:45.960Z,100.00
2023-01-09T04:55:48.192Z,100.00
2023-01-09T04:58:51.087Z,100.00
2023-01-09T05:01:54.744Z,100.00
2023-01-09T05:04:57.301Z,100.00
2023-01-09T05:07:59.520Z,100.00
2023-01-09T05:11:02.115Z,100.00
2023-01-09T05:14:04.277Z,100.00
2023-01-09T05:17:06.911Z,100.00
2023-01-09T05:20:09.596Z,100.00
2023-01-09T05:23:12.284Z,100.00
2023-01-09T05:26:14.491Z,100.00
2023-01-09T05:29:17.317Z,100.00
2023-01-09T05:32:19.737Z,100.00
2023-01-09T05:35:22.456Z,100.00
2023-01-09T05:38:24.700Z,100.00
2023-01-09T05:41:27.234Z,100.00
2023-01-09T05:44:29.480Z,100.00
2023-01-09T05:47:32.442Z,100.00
2023-01-09T05:50:34.712Z,100.00
2023-01-09T05:53:37.390Z,100.00
2023-01-09T05:56:39.643Z,100.00
2023-01-09T05:59:42.298Z,100.00
2023-01-09T06:02:44.713Z,100.00
2023-01-09T06:05:47.435Z,98.43
2023-01-09T06:08:49.872Z,99.42
2023-01-09T06:11:54.776Z,97.34
2023-01-09T06:14:59.185Z,97.74
2023-01-09T06:18:01.942Z,95.15
2023-01-09T06:21:05.532Z,94.09
2023-01-09T06:24:09.180Z,95.10
2023-01-09T06:27:14.062Z,93.10
2023-01-09T06:30:16.953Z,94.06
2023-01-09T06:33:20.558Z,92.21
2023-01-09T06:36:24.359Z,92.10
2023-01-09T06:39:28.798Z,92.48
2023-01-09T06:42:31.701Z,94.83
2023-01-09T06:45:34.205Z,94.12
2023-01-09T06:48:37.205Z,95.11
2023-01-09T06:51:40.093Z,94.01
2023-01-09T06:54:43.068Z,93.18
2023-01-09T06:57:45.827Z,92.20
2023-01-09T07:00:49.605Z,93.18
2023-01-09T07:03:52.086Z,92.30
2023-01-09T07:06:54.824Z,91.61
2023-01-09T07:09:57.079Z,92.14
2023-01-09T07:12:59.871Z,92.70
2023-01-09T07:16:03.389Z,91.85
2023-01-09T07:19:06.203Z,91.55
2023-01-09T07:22:08.559Z,93.88
2023-01-09T07:25:11.679Z,90.54
2023-01-09T07:28:14.248Z,92.54
2023-01-09T07:31:17.754Z,93.37
2023-01-09T07:34:21.409Z,93.44
2023-01-09T07:37:24.492Z,94.06
2023-01-09T07:40:27.277Z,91.99
2023-01-09T07:43:29.844Z,90.18
2023-01-09T07:46:32.126Z,91.87
2023-01-09T07:49:35.017Z,95.00
2023-01-09T07:52:37.232Z,94.31
2023-01-09T07:55:39.666Z,89.76
2023-01-09T07:58:42.264Z,91.59
2023-01-09T08:01:44.961Z,92.40
2023-01-09T08:04:47.836Z,88.36
2023-01-09T08:07:51.372Z,88.26
2023-01-09T08:10:54.060Z,90.91
2023-01-09T08:13:56.315Z,91.05
2023-01-09T08:16:59.349Z,91.11
2023-01-09T08:20:07.322Z,91.07
2023-01-09T08:23:09.823Z,93.21
2023-01-09T08:26:12.207Z,97.74
2023-01-09T08:29:14.854Z,100.00
2023-01-09T08:32:17.099Z,100.00
2023-01-09T08:35:21.826Z,100.00
2023-01-09T08:38:24.065Z,100.00
2023-01-09T08:41:45.279Z,100.00
2023-01-09T08:45:06.082Z,100.00
2023-01-09T08:48:08.615Z,100.00
2023-01-09T08:51:11.060Z,100.00
2023-01-09T08:54:13.754Z,100.00
2023-01-09T08:57:15.950Z,100.00
2023-01-09T09:00:20.395Z,100.00
2023-01-09T09:03:22.853Z,100.00
2023-01-09T09:06:25.345Z,100.00
2023-01-09T09:09:27.600Z,100.00
2023-01-09T09:12:30.054Z,100.00
2023-01-09T09:15:34.234Z,100.00
2023-01-09T09:18:36.936Z,100.00
2023-01-09T09:21:39.355Z,100.00
2023-01-09T09:24:42.034Z,100.00
2023-01-09T09:27:44.935Z,100.00
2023-01-09T09:30:47.806Z,100.00
2023-01-09T09:33:50.401Z,100.00
2023-01-09T09:36:54.331Z,100.00
2023-01-09T09:39:57.997Z,100.00
2023-01-09T09:44:01.663Z,100.00
2023-01-09T09:47:31.497Z,100.00
2023-01-09T09:50:52.841Z,100.00
2023-01-09T09:53:59.994Z,100.00
2023-01-09T09:57:05.728Z,100.00
2023-01-09T10:00:15.672Z,100.00
2023-01-09T10:03:34.145Z,100.00
2023-01-09T10:06:43.126Z,100.00
2023-01-09T10:09:49.227Z,100.00
2023-01-09T10:12:59.908Z,100.00
2023-01-09T10:16:36.177Z,100.00
2023-01-09T10:20:18.901Z,100.00
2023-01-09T10:23:24.502Z,100.00
2023-01-09T10:26:36.794Z,100.00
2023-01-09T10:29:54.382Z,100.00
2023-01-09T10:33:02.713Z,100.00
2023-01-09T10:36:42.276Z,100.00
2023-01-09T10:39:47.726Z,100.00
2023-01-09T10:43:17.107Z,100.00
2023-01-09T10:46:44.231Z,100.00
2023-01-09T10:49:50.001Z,100.00
2023-01-09T10:52:56.070Z,100.00
2023-01-09T10:56:22.646Z,100.00
2023-01-09T10:59:25.496Z,100.00
2023-01-09T11:02:32.940Z,100.00
2023-01-09T11:05:36.731Z,100.00
2023-01-09T11:08:42.724Z,100.00
2023-01-09T11:11:45.414Z,100.00
2023-01-09T11:14:47.882Z,100.00
2023-01-09T11:17:51.792Z,100.00
2023-01-09T11:20:54.427Z,100.00
2023-01-09T11:23:57.368Z,100.00
2023-01-09T11:27:23.799Z,100.00
2023-01-09T11:30:27.959Z,100.00
2023-01-09T11:33:49.874Z,100.00
2023-01-09T11:36:54.261Z,100.00
2023-01-09T11:39:59.477Z,100.00
2023-01-09T11:43:12.912Z,100.00
2023-01-09T11:46:40.846Z,100.00
2023-01-09T11:49:43.225Z,100.00
2023-01-09T11:52:46.580Z,100.00
2023-01-09T11:56:03.676Z,100.00
2023-01-09T11:59:15.016Z,100.00
2023-01-09T12:02:23.310Z,100.00
2023-01-09T12:05:39.127Z,100.00
2023-01-09T12:08:53.738Z,100.00
2023-01-09T12:12:11.197Z,100.00
2023-01-09T12:15:58.024Z,100.00
2023-01-09T12:19:12.818Z,100.00
2023-01-09T12:22:34.740Z,100.00
2023-01-09T12:26:08.251Z,100.00
2023-01-09T12:29:44.712Z,100.00
2023-01-09T12:33:11.574Z,100.00
2023-01-09T12:36:17.834Z,100.00
2023-01-09T12:39:49.546Z,100.00
2023-01-09T12:43:20.801Z,100.00
2023-01-09T12:46:27.294Z,100.00
2023-01-09T12:49:32.476Z,100.00
2023-01-09T12:52:43.758Z,100.00
2023-01-09T12:56:06.756Z,100.00
2023-01-09T12:59:43.927Z,100.00
2023-01-09T13:02:51.689Z,100.00
2023-01-09T13:05:58.726Z,100.00
2023-01-09T13:09:27.638Z,100.00
2023-01-09T13:12:37.546Z,100.00
2023-01-09T13:15:43.643Z,100.00
2023-01-09T13:18:58.355Z,100.00
2023-01-09T13:22:01.215Z,100.00
2023-01-09T13:25:08.491Z,100.00
2023-01-09T13:28:16.744Z,100.00
2023-01-09T13:31:52.641Z,100.00
2023-01-09T13:34:57.704Z,100.00
2023-01-09T13:38:00.698Z,100.00
2023-01-09T13:41:33.636Z,100.00
2023-01-09T13:44:36.251Z,100.00
2023-01-09T13:47:38.604Z,100.00
2023-01-09T13:50:42.588Z,100.00
2023-01-09T13:53:46.408Z,100.00
2023-01-09T13:57:17.825Z,100.00
2023-01-09T14:00:19.919Z,100.00
2023-01-09T14:03:32.871Z,100.00
2023-01-09T14:06:35.768Z,100.00
2023-01-09T14:09:51.058Z,100.00
2023-01-09T14:12:55.848Z,100.00
2023-01-09T14:16:09.233Z,100.00
2023-01-09T14:19:14.532Z,100.00
2023-01-09T14:22:30.196Z,100.00
2023-01-09T14:25:32.822Z,100.00
2023-01-09T14:28:35.417Z,100.00
2023-01-09T14:31:37.842Z,100.00
2023-01-09T14:34:42.381Z,100.00
2023-01-09T14:38:00.396Z,100.00
2023-01-09T14:42:03.857Z,100.00
2023-01-09T14:45:13.956Z,100.00
2023-01-09T14:48:17.356Z,100.00
2023-01-09T14:51:22.773Z,100.00
2023-01-09T14:54:31.833Z,100.00
2023-01-09T14:57:34.797Z,100.00
2023-01-09T15:00:37.470Z,100.00
2023-01-09T15:03:59.169Z,100.00
2023-01-09T15:07:03.871Z,100.00
2023-01-09T15:10:08.099Z,100.00
2023-01-09T15:13:15.815Z,100.00
2023-01-09T15:16:24.562Z,100.00
2023-01-09T15:19:28.277Z,100.00
2023-01-09T15:22:31.970Z,100.00
2023-01-09T15:25:39.644Z,100.00
2023-01-09T15:28:43.836Z,100.00
2023-01-09T15:32:09.311Z,100.00
2023-01-09T15:35:14.195Z,100.00
2023-01-09T15:38:22.323Z,100.00
2023-01-09T15:41:45.701Z,100.00
2023-01-09T15:44:51.075Z,100.00
2023-01-09T15:47:54.604Z,100.00
2023-01-09T15:50:58.536Z,100.00
2023-01-09T15:54:01.223Z,100.00
2023-01-09T15:57:24.379Z,100.00
2023-01-09T16:00:41.536Z,100.00
2023-01-09T16:03:44.390Z,100.00
2023-01-09T16:06:50.078Z,100.00
2023-01-09T16:09:52.869Z,100.00
2023-01-09T16:12:55.428Z,100.00
2023-01-09T16:16:01.132Z,100.00
2023-01-09T16:19:03.658Z,100.00
2023-01-09T16:22:22.996Z,100.00
2023-01-09T16:25:32.191Z,100.00
2023-01-09T16:28:34.749Z,100.00
2023-01-09T16:31:37.069Z,100.00
2023-01-09T16:34:42.432Z,100.00
2023-01-09T16:37:44.833Z,100.00
2023-01-09T16:41:26.516Z,100.00
2023-01-09T16:44:28.761Z,100.00
2023-01-09T16:47:31.273Z,100.00
2023-01-09T16:50:33.537Z,100.00
2023-01-09T16:53:36.157Z,100.00
2023-01-09T16:56:40.289Z,100.00
2023-01-09T16:59:43.657Z,100.00
2023-01-09T17:02:46.070Z,100.00
2023-01-09T17:05:55.421Z,100.00
2023-01-09T17:08:57.855Z,100.00
2023-01-09T17:12:00.367Z,100.00
2023-01-09T17:15:02.692Z,100.00
2023-01-09T17:18:06.727Z,100.00
2023-01-09T17:21:19.922Z,100.00
2023-01-09T17:24:41.154Z,100.00
2023-01-09T17:28:02.140Z,100.00
2023-01-09T17:31:08.680Z,100.00
2023-01-09T17:34:10.945Z,100.00
2023-01-09T17:37:15.710Z,100.00
2023-01-09T17:40:21.574Z,100.00
2023-01-09T17:43:24.507Z,100.00
2023-01-09T17:46:35.393Z,100.00
2023-01-09T17:49:38.909Z,100.00
2023-01-09T17:52:41.127Z,100.00
2023-01-09T17:55:43.663Z,100.00
2023-01-09T17:58:45.996Z,100.00
2023-01-09T18:01:48.785Z,100.00
2023-01-09T18:04:51.440Z,100.00
2023-01-09T18:07:53.836Z,100.00
2023-01-09T18:10:56.434Z,100.00
2023-01-09T18:13:58.754Z,100.00
2023-01-09T18:17:02.492Z,100.00
2023-01-09T18:20:05.831Z,100.00
2023-01-09T18:23:10.904Z,100.00
2023-01-09T18:26:20.197Z,100.00
2023-01-09T18:29:22.849Z,100.00
2023-01-09T18:32:25.114Z,100.00
2023-01-09T18:35:28.527Z,100.00
2023-01-09T18:38:30.862Z,100.00
2023-01-09T18:41:33.591Z,100.00
2023-01-09T18:44:35.892Z,100.00
2023-01-09T18:47:38.465Z,100.00
2023-01-09T18:50:40.830Z,100.00
2023-01-09T18:53:43.332Z,100.00
2023-01-09T18:56:45.543Z,100.00
2023-01-09T18:59:48.137Z,100.00
2023-01-09T19:02:50.396Z,100.00
2023-01-09T19:05:53.018Z,100.00
2023-01-09T19:08:56.202Z,100.00
2023-01-09T19:11:58.794Z,100.00
2023-01-09T19:15:01.035Z,100.00
2023-01-09T19:18:03.797Z,100.00
2023-01-09T19:21:18.109Z,100.00
2023-01-09T19:24:21.222Z,100.00
2023-01-09T19:27:23.478Z,100.00
2023-01-09T19:30:26.571Z,100.00
2023-01-09T19:33:28.735Z,100.00
2023-01-09T19:36:31.403Z,100.00
2023-01-09T19:39:33.731Z,100.00
2023-01-09T19:42:36.280Z,100.00
2023-01-09T19:45:39.069Z,100.00
2023-01-09T19:48:44.927Z,100.00
2023-01-09T19:51:47.669Z,100.00
2023-01-09T19:54:50.161Z,100.00
2023-01-09T19:57:52.423Z,100.00
2023-01-09T20:00:54.983Z,100.00
2023-01-09T20:04:02.847Z,100.00
2023-01-09T20:07:05.229Z,100.00
2023-01-09T20:10:08.269Z,100.00
2023-01-09T20:13:10.489Z,100.00
2023-01-09T20:16:21.438Z,100.00
2023-01-09T20:19:23.924Z,100.00
2023-01-09T20:22:26.560Z,100.00
2023-01-09T20:25:28.861Z,100.00
2023-01-09T20:28:31.407Z,100.00
2023-01-09T20:31:33.766Z,100.00
2023-01-09T20:34:36.398Z,100.00
2023-01-09T20:37:40.015Z,100.00
2023-01-09T20:40:43.955Z,100.00
2023-01-09T20:43:46.575Z,100.00
2023-01-09T20:46:49.454Z,100.00
2023-01-09T20:49:51.746Z,100.00
2023-01-09T20:52:54.379Z,100.00
2023-01-09T20:56:05.777Z,100.00
2023-01-09T20:59:12.875Z,100.00
2023-01-09T21:02:15.089Z,100.00
2023-01-09T21:05:17.635Z,100.00
2023-01-09T21:08:20.157Z,100.00
2023-01-09T21:11:22.821Z,100.00
2023-01-09T21:14:25.014Z,100.00
2023-01-09T21:17:35.475Z,100.00
2023-01-09T21:20:37.662Z,100.00
2023-01-09T21:23:51.953Z,100.00
2023-01-09T21:26:54.311Z,100.00
2023-01-09T21:29:56.813Z,100.00
2023-01-09T21:32:59.040Z,100.00
2023-01-09T21:36:05.050Z,100.00
2023-01-09T21:39:08.426Z,100.00
2023-01-09T21:42:29.751Z,100.00
2023-01-09T21:45:50.584Z,100.00
2023-01-09T21:48:53.252Z,100.00
2023-01-09T21:51:55.904Z,100.00
2023-01-09T21:54:58.396Z,100.00
2023-01-09T21:58:04.186Z,100.00
2023-01-09T22:01:06.733Z,100.00
2023-01-09T22:04:11.599Z,100.00
2023-01-09T22:07:13.877Z,100.00
2023-01-09T22:10:16.887Z,100.00
2023-01-09T22:13:20.421Z,100.00
2023-01-09T22:16:27.171Z,100.00
2023-01-09T22:19:29.553Z,100.00
2023-01-09T22:22:32.008Z,100.00
2023-01-09T22:25:36.911Z,100.00
2023-01-09T22:28:40.866Z,100.00
2023-01-09T22:31:43.356Z,100.00
2023-01-09T22:34:45.958Z,100.00
2023-01-09T22:37:48.134Z,100.00
2023-01-09T22:40:50.580Z,100.00
2023-01-09T22:43:53.008Z,100.00
2023-01-09T22:46:57.358Z,100.00
2023-01-09T22:49:59.633Z,100.00
2023-01-09T22:53:02.345Z,100.00
2023-01-09T22:56:08.298Z,100.00
2023-01-09T22:59:10.810Z,100.00
2023-01-09T23:02:13.239Z,100.00
2023-01-09T23:05:15.896Z,100.00
2023-01-09T23:08:18.294Z,100.00
2023-01-09T23:11:46.073Z,100.00
2023-01-09T23:14:48.741Z,100.00
2023-01-09T23:17:51.521Z,100.00
2023-01-09T23:20:56.540Z,100.00
2023-01-09T23:23:59.126Z,100.00
2023-01-09T23:27:01.709Z,100.00
2023-01-09T23:30:04.660Z,100.00
2023-01-09T23:33:06.788Z,100.00
2023-01-09T23:36:09.656Z,100.00
2023-01-09T23:39:11.902Z,100.00
2023-01-09T23:42:32.986Z,100.00
2023-01-09T23:45:39.066Z,100.00
2023-01-09T23:48:41.912Z,100.00
2023-01-09T23:51:44.619Z,100.00
2023-01-09T23:54:47.063Z,100.00
2023-01-09T23:57:54.392Z,100.00
